createdAt,value
2022-11-05T00:00:33.603Z,98491.50
2022-11-05T00:03:19.029Z,98495.00
2022-11-05T00:06:07.016Z,98496.75
2022-11-05T00:08:52.713Z,98503.78
2022-11-05T00:11:19.331Z,98504.63
2022-11-05T00:14:04.386Z,98507.34
2022-11-05T00:16:46.071Z,98506.56
2022-11-05T00:19:13.553Z,98510.06
2022-11-05T00:21:58.789Z,98512.25
2022-11-05T00:24:43.841Z,98510.66
2022-11-05T00:27:11.091Z,98508.31
2022-11-05T00:29:37.683Z,98517.47
2022-11-05T00:32:04.448Z,98515.75
2022-11-05T00:34:30.997Z,98520.91
2022-11-05T00:36:57.563Z,98517.34
2022-11-05T00:39:24.096Z,98522.78
2022-11-05T00:42:10.592Z,98525.41
2022-11-05T00:44:55.808Z,98530.81
2022-11-05T00:47:40.985Z,98534.19
2022-11-05T00:50:07.839Z,98548.00
2022-11-05T00:52:53.051Z,98535.88
2022-11-05T00:55:19.593Z,98545.44
2022-11-05T00:57:46.142Z,98548.91
2022-11-05T01:00:13.364Z,98547.13
2022-11-05T01:02:40.062Z,98557.88
2022-11-05T01:05:06.917Z,98552.78
2022-11-05T01:07:33.503Z,98549.50
2022-11-05T01:10:00.116Z,98550.78
2022-11-05T01:12:26.693Z,98544.78
2022-11-05T01:14:53.309Z,98551.28
2022-11-05T01:17:19.843Z,98554.81
2022-11-05T01:19:46.363Z,98555.75
2022-11-05T01:22:13.365Z,98558.28
2022-11-05T01:24:39.978Z,98555.75
2022-11-05T01:27:06.622Z,98556.16
2022-11-05T01:29:33.228Z,98558.03
2022-11-05T01:31:59.874Z,98561.50
2022-11-05T01:34:26.459Z,98558.69
2022-11-05T01:36:53.040Z,98571.44
2022-11-05T01:39:19.611Z,98581.53
2022-11-05T01:41:46.197Z,98593.97
2022-11-05T01:44:53.178Z,98587.16
2022-11-05T01:47:39.923Z,98599.66
2022-11-05T01:50:30.856Z,98601.91
2022-11-05T01:53:04.165Z,98595.31
2022-11-05T01:55:41.762Z,98594.00
2022-11-05T01:58:12.366Z,98594.13
2022-11-05T02:00:41.178Z,98591.59
2022-11-05T02:03:08.365Z,98603.94
2022-11-05T02:05:35.682Z,98602.47
2022-11-05T02:08:02.731Z,98603.53
2022-11-05T02:10:29.384Z,98612.69
2022-11-05T02:12:55.946Z,98611.94
2022-11-05T02:15:55.644Z,98618.28
2022-11-05T02:18:48.257Z,98620.91
2022-11-05T02:21:50.250Z,98622.81
2022-11-05T02:24:56.573Z,98622.06
2022-11-05T02:27:57.465Z,98621.97
2022-11-05T02:31:08.739Z,98629.34
2022-11-05T02:33:39.603Z,98636.41
2022-11-05T02:36:28.631Z,98639.03
2022-11-05T02:39:20.541Z,98645.41
2022-11-05T02:42:29.155Z,98651.75
2022-11-05T02:45:13.944Z,98657.41
2022-11-05T02:48:07.785Z,98664.69
2022-11-05T02:50:45.577Z,98660.22
2022-11-05T02:53:19.731Z,98662.84
2022-11-05T02:56:10.096Z,98659.72
2022-11-05T02:58:36.671Z,98661.50
2022-11-05T03:01:06.916Z,98674.38
2022-11-05T03:03:38.906Z,98675.16
2022-11-05T03:06:19.566Z,98680.22
2022-11-05T03:09:10.383Z,98679.16
2022-11-05T03:11:57.031Z,98681.91
2022-11-05T03:14:37.529Z,98684.59
2022-11-05T03:17:20.103Z,98689.63
2022-11-05T03:19:49.627Z,98683.06
2022-11-05T03:22:25.806Z,98697.44
2022-11-05T03:24:58.146Z,98687.53
2022-11-05T03:27:29.320Z,98685.63
2022-11-05T03:30:02.052Z,98693.19
2022-11-05T03:32:33.628Z,98683.59
2022-11-05T03:35:05.418Z,98698.22
2022-11-05T03:37:40.023Z,98695.81
2022-11-05T03:40:09.828Z,98683.47
2022-11-05T03:42:40.869Z,98683.31
2022-11-05T03:45:21.043Z,98689.59
2022-11-05T03:47:50.662Z,98688.03
2022-11-05T03:50:23.920Z,98685.69
2022-11-05T03:53:16.205Z,98698.16
2022-11-05T03:55:52.726Z,98696.56
2022-11-05T03:58:22.035Z,98703.53
2022-11-05T04:00:49.689Z,98706.88
2022-11-05T04:03:16.778Z,98713.19
2022-11-05T04:05:43.779Z,98721.13
2022-11-05T04:08:48.708Z,98704.66
2022-11-05T04:11:33.666Z,98725.63
2022-11-05T04:14:00.218Z,98727.50
2022-11-05T04:16:45.258Z,98727.50
2022-11-05T04:19:11.828Z,98728.41
2022-11-05T04:22:13.586Z,98731.44
2022-11-05T04:24:40.293Z,98735.84
2022-11-05T04:27:11.351Z,98742.78
2022-11-05T04:29:56.670Z,98749.03
2022-11-05T04:32:23.192Z,98738.13
2022-11-05T04:34:49.718Z,98748.66
2022-11-05T04:37:16.370Z,98738.22
2022-11-05T04:39:42.882Z,98745.31
2022-11-05T04:42:09.386Z,98749.69
2022-11-05T04:44:36.186Z,98748.38
2022-11-05T04:47:02.774Z,98758.03
2022-11-05T04:49:29.280Z,98753.22
2022-11-05T04:51:55.859Z,98755.81
2022-11-05T04:54:22.377Z,98755.00
2022-11-05T04:56:48.962Z,98752.50
2022-11-05T04:59:15.535Z,98759.47
2022-11-05T05:01:42.196Z,98761.38
2022-11-05T05:04:08.843Z,98756.22
2022-11-05T05:06:35.399Z,98761.56
2022-11-05T05:09:01.929Z,98756.47
2022-11-05T05:11:28.445Z,98761.00
2022-11-05T05:13:54.994Z,98763.69
2022-11-05T05:16:26.491Z,98766.28
2022-11-05T05:18:53.609Z,98776.03
2022-11-05T05:21:40.598Z,98779.63
2022-11-05T05:24:12.985Z,98779.84
2022-11-05T05:26:42.904Z,98778.09
2022-11-05T05:29:10.535Z,98775.66
2022-11-05T05:31:37.503Z,98784.44
2022-11-05T05:34:05.397Z,98779.41
2022-11-05T05:36:32.328Z,98791.03
2022-11-05T05:38:59.029Z,98790.56
2022-11-05T05:41:25.761Z,98794.22
2022-11-05T05:43:52.413Z,98790.84
2022-11-05T05:46:19.814Z,98792.91
2022-11-05T05:48:51.338Z,98805.84
2022-11-05T05:51:18.661Z,98798.84
2022-11-05T05:53:45.616Z,98804.03
2022-11-05T05:56:15.063Z,98810.13
2022-11-05T05:58:42.220Z,98804.94
2022-11-05T06:01:18.294Z,98813.63
2022-11-05T06:03:45.918Z,98816.50
2022-11-05T06:06:13.699Z,98816.44
2022-11-05T06:08:40.883Z,98817.41
2022-11-05T06:11:08.984Z,98820.13
2022-11-05T06:13:36.580Z,98816.00
2022-11-05T06:16:05.411Z,98830.19
2022-11-05T06:18:33.032Z,98832.78
2022-11-05T06:21:13.276Z,98831.94
2022-11-05T06:23:41.902Z,98830.22
2022-11-05T06:26:11.967Z,98844.19
2022-11-05T06:28:38.715Z,98830.56
2022-11-05T06:31:05.491Z,98840.91
2022-11-05T06:33:32.091Z,98842.69
2022-11-05T06:35:59.940Z,98842.69
2022-11-05T06:38:27.464Z,98851.47
2022-11-05T06:40:54.004Z,98842.03
2022-11-05T06:43:20.554Z,98839.53
2022-11-05T06:45:47.152Z,98846.59
2022-11-05T06:48:13.697Z,98849.59
2022-11-05T06:50:44.408Z,98853.19
2022-11-05T06:53:11.972Z,98853.97
2022-11-05T06:55:39.236Z,98865.06
2022-11-05T06:58:06.146Z,98865.81
2022-11-05T07:00:32.931Z,98869.22
2022-11-05T07:03:07.094Z,98872.78
2022-11-05T07:05:36.660Z,98870.94
2022-11-05T07:08:03.238Z,98877.72
2022-11-05T07:10:30.000Z,98876.00
2022-11-05T07:12:56.603Z,98882.84
2022-11-05T07:15:23.273Z,98893.34
2022-11-05T07:17:49.946Z,98902.22
2022-11-05T07:20:16.588Z,98906.53
2022-11-05T07:22:45.960Z,98912.13
2022-11-05T07:25:12.464Z,98911.88
2022-11-05T07:27:40.195Z,98911.63
2022-11-05T07:30:09.217Z,98910.72
2022-11-05T07:32:40.075Z,98915.16
2022-11-05T07:35:08.709Z,98919.22
2022-11-05T07:37:45.727Z,98928.72
2022-11-05T07:40:14.300Z,98926.06
2022-11-05T07:42:44.681Z,98933.66
2022-11-05T07:45:12.621Z,98942.06
2022-11-05T07:48:00.625Z,98942.03
2022-11-05T07:50:30.574Z,98949.81
2022-11-05T07:53:08.128Z,98956.53
2022-11-05T07:55:35.677Z,98956.47
2022-11-05T07:58:02.423Z,98961.59
2022-11-05T08:00:29.731Z,98966.72
2022-11-05T08:03:07.821Z,98976.03
2022-11-05T08:05:38.019Z,98977.41
2022-11-05T08:08:05.907Z,98980.59
2022-11-05T08:10:33.997Z,98989.00
2022-11-05T08:13:01.036Z,98990.44
2022-11-05T08:15:27.978Z,98980.66
2022-11-05T08:18:03.209Z,98981.22
2022-11-05T08:20:30.535Z,98982.78
2022-11-05T08:22:57.375Z,98978.28
2022-11-05T08:25:24.702Z,98984.41
2022-11-05T08:28:01.745Z,98980.88
2022-11-05T08:30:29.008Z,98981.88
2022-11-05T08:33:00.796Z,98982.66
2022-11-05T08:35:28.303Z,98987.00
2022-11-05T08:38:02.959Z,98983.16
2022-11-05T08:40:34.809Z,98981.09
2022-11-05T08:43:07.003Z,98983.63
2022-11-05T08:45:46.668Z,98982.22
2022-11-05T08:48:23.869Z,98985.00
2022-11-05T08:50:55.714Z,98980.31
2022-11-05T08:53:25.646Z,98980.78
2022-11-05T08:55:52.580Z,98983.34
2022-11-05T08:58:20.544Z,98983.44
2022-11-05T09:00:50.329Z,98988.59
2022-11-05T09:03:23.273Z,98999.00
2022-11-05T09:05:53.367Z,98998.81
2022-11-05T09:08:22.866Z,98999.88
2022-11-05T09:11:01.392Z,98994.31
2022-11-05T09:13:31.594Z,98991.78
2022-11-05T09:15:59.984Z,99000.06
2022-11-05T09:18:33.967Z,99005.50
2022-11-05T09:21:13.981Z,99002.94
2022-11-05T09:23:53.824Z,99008.66
2022-11-05T09:26:22.076Z,99010.47
2022-11-05T09:28:51.681Z,99011.69
2022-11-05T09:31:22.844Z,99023.59
2022-11-05T09:33:52.325Z,99021.88
2022-11-05T09:36:23.572Z,99026.78
2022-11-05T09:38:52.869Z,99039.69
2022-11-05T09:41:51.665Z,99042.00
2022-11-05T09:44:56.799Z,99043.53
2022-11-05T09:47:52.897Z,99042.31
2022-11-05T09:50:30.241Z,99054.16
2022-11-05T09:53:02.000Z,99046.94
2022-11-05T09:55:50.801Z,99046.81
2022-11-05T09:58:33.197Z,99049.44
2022-11-05T10:01:14.282Z,99055.00
2022-11-05T10:03:52.829Z,99064.19
2022-11-05T10:06:29.022Z,99067.00
2022-11-05T10:09:24.114Z,99057.56
2022-11-05T10:12:00.896Z,99071.31
2022-11-05T10:14:52.597Z,99066.00
2022-11-05T10:17:29.265Z,99067.84
2022-11-05T10:20:14.828Z,99079.69
2022-11-05T10:22:49.803Z,99084.13
2022-11-05T10:25:25.194Z,99083.41
2022-11-05T10:28:10.059Z,99084.97
2022-11-05T10:30:40.733Z,99095.06
2022-11-05T10:33:09.250Z,99095.38
2022-11-05T10:35:54.884Z,99096.34
2022-11-05T10:38:36.107Z,99102.19
2022-11-05T10:41:31.809Z,99097.59
2022-11-05T10:44:26.676Z,99106.06
2022-11-05T10:47:01.274Z,99103.75
2022-11-05T10:50:00.559Z,99104.81
2022-11-05T10:52:38.445Z,99106.06
2022-11-05T10:55:27.322Z,99105.63
2022-11-05T10:58:14.529Z,99102.03
2022-11-05T11:00:54.151Z,99100.97
2022-11-05T11:03:53.546Z,99104.22
2022-11-05T11:06:32.863Z,99098.63
2022-11-05T11:09:02.783Z,99099.75
2022-11-05T11:11:48.107Z,99099.25
2022-11-05T11:14:21.956Z,99099.84
2022-11-05T11:17:02.009Z,99089.56
2022-11-05T11:19:31.723Z,99099.25
2022-11-05T11:22:13.398Z,99094.94
2022-11-05T11:24:47.657Z,99097.56
2022-11-05T11:27:27.293Z,99102.78
2022-11-05T11:30:28.607Z,99100.63
2022-11-05T11:33:07.165Z,99094.06
2022-11-05T11:35:37.013Z,99101.81
2022-11-05T11:38:10.198Z,99100.34
2022-11-05T11:40:44.942Z,99093.81
2022-11-05T11:43:36.260Z,99105.72
2022-11-05T11:46:12.482Z,99112.34
2022-11-05T11:48:45.875Z,99106.81
2022-11-05T11:51:31.630Z,99110.03
2022-11-05T11:54:03.150Z,99112.19
2022-11-05T11:56:44.681Z,99110.69
2022-11-05T11:59:35.364Z,99111.09
2022-11-05T12:02:57.304Z,99102.91
2022-11-05T12:05:42.771Z,99107.25
2022-11-05T12:08:46.501Z,99101.50
2022-11-05T12:11:38.022Z,99109.81
2022-11-05T12:14:21.832Z,99098.78
2022-11-05T12:16:54.652Z,99103.19
2022-11-05T12:20:08.770Z,99103.56
2022-11-05T12:22:54.274Z,99115.03
2022-11-05T12:26:01.494Z,99097.50
2022-11-05T12:28:30.943Z,99101.41
2022-11-05T12:31:21.050Z,99098.91
2022-11-05T12:34:10.823Z,99094.41
2022-11-05T12:37:04.217Z,99090.47
2022-11-05T12:39:57.842Z,99085.94
2022-11-05T12:43:11.859Z,99079.91
2022-11-05T12:45:48.038Z,99090.13
2022-11-05T12:48:56.009Z,99074.00
2022-11-05T12:51:47.068Z,99077.81
2022-11-05T12:54:27.912Z,99077.25
2022-11-05T12:57:08.398Z,99074.63
2022-11-05T12:59:44.734Z,99076.97
2022-11-05T13:02:27.595Z,99069.78
2022-11-05T13:05:20.023Z,99065.09
2022-11-05T13:07:59.742Z,99062.38
2022-11-05T13:10:36.000Z,99051.69
2022-11-05T13:13:46.186Z,99048.75
2022-11-05T13:16:37.404Z,99041.75
2022-11-05T13:19:36.049Z,99047.59
2022-11-05T13:22:34.221Z,99052.59
2022-11-05T13:25:20.841Z,99050.13
2022-11-05T13:28:05.270Z,99051.47
2022-11-05T13:30:37.627Z,99061.16
2022-11-05T13:33:19.672Z,99053.69
2022-11-05T13:36:15.807Z,99046.38
2022-11-05T13:39:03.776Z,99048.91
2022-11-05T13:41:40.270Z,99038.72
2022-11-05T13:44:34.095Z,99043.47
2022-11-05T13:47:18.547Z,99039.28
2022-11-05T13:50:12.356Z,99049.44
2022-11-05T13:53:06.700Z,99043.97
2022-11-05T13:55:42.771Z,99044.63
2022-11-05T13:58:49.798Z,99048.00
2022-11-05T14:01:28.771Z,99038.97
2022-11-05T14:03:56.674Z,99050.06
2022-11-05T14:06:27.678Z,99050.13
2022-11-05T14:09:02.420Z,99045.63
2022-11-05T14:11:38.291Z,99046.50
2022-11-05T14:14:27.047Z,99037.53
2022-11-05T14:17:08.814Z,99029.88
2022-11-05T14:19:48.955Z,99030.19
2022-11-05T14:22:48.167Z,99029.06
2022-11-05T14:25:17.768Z,99017.47
2022-11-05T14:27:48.503Z,99018.19
2022-11-05T14:30:43.225Z,99004.75
2022-11-05T14:33:37.666Z,99012.63
2022-11-05T14:36:22.545Z,99008.06
2022-11-05T14:38:56.108Z,99013.38
2022-11-05T14:41:25.485Z,99011.78
2022-11-05T14:44:04.769Z,99004.03
2022-11-05T14:46:43.383Z,99007.38
2022-11-05T14:49:18.855Z,99009.84
2022-11-05T14:51:49.837Z,99014.84
2022-11-05T14:54:19.386Z,99005.66
2022-11-05T14:56:54.938Z,99010.91
2022-11-05T14:59:25.886Z,99017.09
2022-11-05T15:01:57.686Z,99020.47
2022-11-05T15:04:33.170Z,99024.97
2022-11-05T15:07:02.995Z,99024.03
2022-11-05T15:09:55.904Z,99022.34
2022-11-05T15:12:30.085Z,99025.13
2022-11-05T15:15:21.969Z,99023.63
2022-11-05T15:17:58.349Z,99024.00
2022-11-05T15:20:39.654Z,99024.88
2022-11-05T15:23:11.359Z,99025.84
2022-11-05T15:25:51.948Z,99016.34
2022-11-05T15:28:38.131Z,99015.56
2022-11-05T15:31:13.904Z,99013.88
2022-11-05T15:33:42.574Z,99016.59
2022-11-05T15:36:30.768Z,99026.28
2022-11-05T15:39:23.353Z,99011.47
2022-11-05T15:41:45.129Z,99021.34
2022-11-05T15:44:47.510Z,99028.59
2022-11-05T15:47:24.447Z,99024.53
2022-11-05T15:49:57.649Z,99018.63
2022-11-05T15:52:42.379Z,99012.03
2022-11-05T15:55:19.910Z,99023.44
2022-11-05T15:58:00.907Z,99025.13
2022-11-05T16:00:30.215Z,99023.28
2022-11-05T16:03:08.546Z,99031.16
2022-11-05T16:05:41.942Z,99029.38
2022-11-05T16:08:16.967Z,99034.69
2022-11-05T16:10:48.592Z,99034.81
2022-11-05T16:13:38.243Z,99024.56
2022-11-05T16:16:22.319Z,99020.31
2022-11-05T16:18:48.970Z,99023.00
2022-11-05T16:21:22.709Z,99030.06
2022-11-05T16:23:49.264Z,99038.06
2022-11-05T16:27:01.396Z,99033.84
2022-11-05T16:29:39.492Z,99028.81
2022-11-05T16:32:15.361Z,99031.50
2022-11-05T16:34:48.471Z,99025.63
2022-11-05T16:37:17.754Z,99025.81
2022-11-05T16:39:44.978Z,99030.44
2022-11-05T16:42:20.759Z,99028.16
2022-11-05T16:44:48.039Z,99032.75
2022-11-05T16:47:15.384Z,99035.47
2022-11-05T16:49:42.060Z,99033.88
2022-11-05T16:52:10.412Z,99033.00
2022-11-05T16:54:37.083Z,99030.56
2022-11-05T16:57:06.367Z,99035.13
2022-11-05T16:59:33.221Z,99028.38
2022-11-05T17:02:00.220Z,99038.00
2022-11-05T17:04:26.862Z,99037.34
2022-11-05T17:06:53.454Z,99037.47
2022-11-05T17:09:20.030Z,99042.78
2022-11-05T17:11:46.585Z,99052.53
2022-11-05T17:14:14.012Z,99050.91
2022-11-05T17:16:41.134Z,99045.72
2022-11-05T17:19:13.939Z,99055.47
2022-11-05T17:21:40.574Z,99057.41
2022-11-05T17:24:07.781Z,99051.41
2022-11-05T17:26:34.785Z,99058.47
2022-11-05T17:29:01.384Z,99056.03
2022-11-05T17:31:28.138Z,99056.97
2022-11-05T17:33:58.992Z,99057.81
2022-11-05T17:36:25.819Z,99058.66
2022-11-05T17:38:52.914Z,99050.81
2022-11-05T17:41:22.803Z,99053.38
2022-11-05T17:43:54.566Z,99053.44
2022-11-05T17:46:21.878Z,99044.94
2022-11-05T17:48:49.024Z,99054.75
2022-11-05T17:51:18.564Z,99054.84
2022-11-05T17:53:47.262Z,99065.44
2022-11-05T17:56:24.518Z,99056.94
2022-11-05T17:58:56.030Z,99050.28
2022-11-05T18:01:31.533Z,99050.41
2022-11-05T18:04:01.240Z,99055.63
2022-11-05T18:06:30.676Z,99061.66
2022-11-05T18:08:57.249Z,99058.13
2022-11-05T18:11:23.840Z,99058.91
2022-11-05T18:13:50.349Z,99051.84
2022-11-05T18:16:17.010Z,99056.75
2022-11-05T18:18:43.518Z,99058.38
2022-11-05T18:21:10.096Z,99061.81
2022-11-05T18:23:36.829Z,99059.06
2022-11-05T18:26:09.087Z,99058.84
2022-11-05T18:28:36.672Z,99065.00
2022-11-05T18:31:03.962Z,99064.06
2022-11-05T18:33:31.639Z,99065.06
2022-11-05T18:35:58.203Z,99069.69
2022-11-05T18:38:24.849Z,99063.81
2022-11-05T18:40:51.398Z,99068.50
2022-11-05T18:43:18.008Z,99059.72
2022-11-05T18:45:44.666Z,99058.97
2022-11-05T18:48:11.627Z,99051.13
2022-11-05T18:50:41.327Z,99053.81
2022-11-05T18:53:07.874Z,99053.03
2022-11-05T18:55:34.397Z,99053.06
2022-11-05T18:58:00.949Z,99055.78
2022-11-05T19:00:27.955Z,99055.69
2022-11-05T19:02:54.710Z,99054.84
2022-11-05T19:05:28.966Z,99060.09
2022-11-05T19:07:56.806Z,99062.75
2022-11-05T19:10:23.869Z,99061.78
2022-11-05T19:12:50.528Z,99059.16
2022-11-05T19:15:17.192Z,99063.53
2022-11-05T19:17:44.177Z,99060.91
2022-11-05T19:20:11.172Z,99052.13
2022-11-05T19:22:37.787Z,99048.72
2022-11-05T19:25:05.655Z,99045.34
2022-11-05T19:27:32.254Z,99039.16
2022-11-05T19:29:58.814Z,99040.00
2022-11-05T19:32:25.547Z,99044.41
2022-11-05T19:34:52.095Z,99041.03
2022-11-05T19:37:19.682Z,99041.84
2022-11-05T19:39:46.331Z,99031.31
2022-11-05T19:42:13.020Z,99040.88
2022-11-05T19:44:40.319Z,99037.25
2022-11-05T19:47:06.880Z,99039.81
2022-11-05T19:49:33.483Z,99040.00
2022-11-05T19:52:00.112Z,99040.13
2022-11-05T19:54:26.703Z,99041.88
2022-11-05T19:56:53.320Z,99039.25
2022-11-05T19:59:19.855Z,99043.66
2022-11-05T20:01:46.997Z,99048.03
2022-11-05T20:04:13.669Z,99036.78
2022-11-05T20:06:40.762Z,99042.78
2022-11-05T20:09:25.805Z,99038.47
2022-11-05T20:11:56.522Z,99029.81
2022-11-05T20:14:25.250Z,99024.63
2022-11-05T20:16:52.023Z,99029.53
2022-11-05T20:19:20.692Z,99040.19
2022-11-05T20:21:47.774Z,99036.66
2022-11-05T20:24:22.280Z,99040.19
2022-11-05T20:26:50.666Z,99041.19
2022-11-05T20:29:17.439Z,99052.41
2022-11-05T20:31:44.027Z,99054.16
2022-11-05T20:34:10.715Z,99053.22
2022-11-05T20:36:38.482Z,99041.88
2022-11-05T20:39:05.782Z,99047.06
2022-11-05T20:41:33.250Z,99058.56
2022-11-05T20:43:59.943Z,99048.94
2022-11-05T20:46:26.605Z,99054.25
2022-11-05T20:48:54.120Z,99061.41
2022-11-05T20:51:22.951Z,99058.75
2022-11-05T20:53:53.609Z,99060.41
2022-11-05T20:56:26.870Z,99067.31
2022-11-05T20:58:53.964Z,99071.75
2022-11-05T21:01:20.814Z,99077.16
2022-11-05T21:03:48.092Z,99075.50
2022-11-05T21:06:15.542Z,99078.31
2022-11-05T21:08:42.822Z,99069.31
2022-11-05T21:11:10.630Z,99064.28
2022-11-05T21:13:37.629Z,99057.16
2022-11-05T21:16:07.290Z,99058.91
2022-11-05T21:18:35.888Z,99069.31
2022-11-05T21:21:12.221Z,99071.94
2022-11-05T21:23:38.811Z,99064.09
2022-11-05T21:26:06.543Z,99075.59
2022-11-05T21:28:34.080Z,99081.59
2022-11-05T21:31:05.530Z,99084.41
2022-11-05T21:33:33.330Z,99080.88
2022-11-05T21:36:09.600Z,99080.91
2022-11-05T21:38:36.571Z,99074.06
2022-11-05T21:41:03.705Z,99070.75
2022-11-05T21:43:30.663Z,99072.53
2022-11-05T21:46:01.113Z,99064.69
2022-11-05T21:48:27.638Z,99059.63
2022-11-05T21:51:12.779Z,99065.66
2022-11-05T21:53:58.369Z,99070.88
2022-11-05T21:56:45.072Z,99060.63
2022-11-05T21:59:32.671Z,99062.50
2022-11-05T22:02:02.708Z,99078.34
2022-11-05T22:04:38.034Z,99082.78
2022-11-05T22:07:06.145Z,99077.59
2022-11-05T22:09:32.921Z,99079.44
2022-11-05T22:12:00.201Z,99077.06
2022-11-05T22:14:27.659Z,99070.91
2022-11-05T22:16:54.741Z,99065.81
2022-11-05T22:19:22.220Z,99062.34
2022-11-05T22:21:49.200Z,99070.13
2022-11-05T22:24:16.093Z,99071.84
2022-11-05T22:26:43.992Z,99056.16
2022-11-05T22:29:11.702Z,99052.75
2022-11-05T22:31:38.268Z,99050.13
2022-11-05T22:34:06.591Z,99061.63
2022-11-05T22:36:34.617Z,99060.91
2022-11-05T22:39:01.864Z,99054.16
2022-11-05T22:41:29.170Z,99061.28
2022-11-05T22:43:55.872Z,99054.41
2022-11-05T22:46:25.507Z,99057.13
2022-11-05T22:48:52.942Z,99062.34
2022-11-05T22:51:25.237Z,99056.53
2022-11-05T22:53:52.099Z,99061.72
2022-11-05T22:56:20.615Z,99060.03
2022-11-05T22:58:47.337Z,99061.13
2022-11-05T23:01:15.765Z,99056.19
2022-11-05T23:03:44.665Z,99063.22
2022-11-05T23:06:35.965Z,99052.97
2022-11-05T23:09:21.704Z,99054.84
2022-11-05T23:11:51.605Z,99052.34
2022-11-05T23:14:18.193Z,99052.38
2022-11-05T23:17:03.441Z,99054.22
2022-11-05T23:19:49.112Z,99045.72
2022-11-05T23:22:38.096Z,99045.88
2022-11-05T23:25:07.602Z,99052.22
2022-11-05T23:27:36.549Z,99042.88
2022-11-05T23:30:09.406Z,99039.47
2022-11-05T23:32:36.354Z,99034.44
2022-11-05T23:35:04.167Z,99027.56
2022-11-05T23:37:50.612Z,99025.06
2022-11-05T23:40:22.018Z,99033.16
2022-11-05T23:43:07.741Z,99029.81
2022-11-05T23:48:37.744Z,99003.31
2022-11-05T23:51:10.510Z,99005.19
2022-11-05T23:53:40.463Z,99006.00
2022-11-05T23:56:12.615Z,98995.38
2022-11-05T23:58:40.455Z,98993.88
